sensor_id;sensor_type;location;lat;lon;timestamp;temperature;humidity
17697;DHT22;8967;47.984;7.842;2022-09-01T00:01:45;17.40;99.90
17697;DHT22;8967;47.984;7.842;2022-09-01T00:04:14;17.50;99.90
17697;DHT22;8967;47.984;7.842;2022-09-01T00:06:42;17.50;99.90
17697;DHT22;8967;47.984;7.842;2022-09-01T00:09:11;17.50;99.90
17697;DHT22;8967;47.984;7.842;2022-09-01T00:11:40;17.50;99.90
17697;DHT22;8967;47.984;7.842;2022-09-01T00:14:08;17.40;99.90
17697;DHT22;8967;47.984;7.842;2022-09-01T00:16:37;17.40;99.90
17697;DHT22;8967;47.984;7.842;2022-09-01T00:19:05;17.40;99.90
17697;DHT22;8967;47.984;7.842;2022-09-01T00:21:34;17.40;99.90
17697;DHT22;8967;47.984;7.842;2022-09-01T00:24:02;17.40;99.90
17697;DHT22;8967;47.984;7.842;2022-09-01T00:26:30;17.40;99.90
17697;DHT22;8967;47.984;7.842;2022-09-01T00:28:57;17.40;99.90
17697;DHT22;8967;47.984;7.842;2022-09-01T00:31:25;17.40;99.90
17697;DHT22;8967;47.984;7.842;2022-09-01T00:33:54;17.30;99.90
17697;DHT22;8967;47.984;7.842;2022-09-01T00:36:21;17.30;99.90
17697;DHT22;8967;47.984;7.842;2022-09-01T00:38:49;17.30;99.90
17697;DHT22;8967;47.984;7.842;2022-09-01T00:41:17;17.30;99.90
17697;DHT22;8967;47.984;7.842;2022-09-01T00:43:47;17.30;99.90
17697;DHT22;8967;47.984;7.842;2022-09-01T00:46:17;17.30;99.90
17697;DHT22;8967;47.984;7.842;2022-09-01T00:48:44;17.30;99.90
17697;DHT22;8967;47.984;7.842;2022-09-01T00:51:15;17.30;99.90
17697;DHT22;8967;47.984;7.842;2022-09-01T00:53:43;17.30;99.90
17697;DHT22;8967;47.984;7.842;2022-09-01T00:56:10;17.30;99.90
17697;DHT22;8967;47.984;7.842;2022-09-01T00:58:39;17.30;99.90
17697;DHT22;8967;47.984;7.842;2022-09-01T01:01:07;17.30;99.90
17697;DHT22;8967;47.984;7.842;2022-09-01T01:03:35;17.30;99.90
17697;DHT22;8967;47.984;7.842;2022-09-01T01:06:05;17.30;99.90
17697;DHT22;8967;47.984;7.842;2022-09-01T01:08:37;17.30;99.90
17697;DHT22;8967;47.984;7.842;2022-09-01T01:11:09;17.30;99.90
17697;DHT22;8967;47.984;7.842;2022-09-01T01:13:50;17.30;99.90
17697;DHT22;8967;47.984;7.842;2022-09-01T01:16:20;17.30;99.90
17697;DHT22;8967;47.984;7.842;2022-09-01T01:18:47;17.20;99.90
17697;DHT22;8967;47.984;7.842;2022-09-01T01:21:18;17.20;99.90
17697;DHT22;8967;47.984;7.842;2022-09-01T01:24:16;17.20;99.90
17697;DHT22;8967;47.984;7.842;2022-09-01T01:26:44;17.20;99.90
17697;DHT22;8967;47.984;7.842;2022-09-01T01:29:15;17.20;99.90
17697;DHT22;8967;47.984;7.842;2022-09-01T01:31:44;17.10;99.90
17697;DHT22;8967;47.984;7.842;2022-09-01T01:34:12;17.10;99.90
17697;DHT22;8967;47.984;7.842;2022-09-01T01:36:40;17.10;99.90
17697;DHT22;8967;47.984;7.842;2022-09-01T01:39:15;17.10;99.90
17697;DHT22;8967;47.984;7.842;2022-09-01T01:41:46;17.10;99.90
17697;DHT22;8967;47.984;7.842;2022-09-01T01:44:18;17.00;99.90
17697;DHT22;8967;47.984;7.842;2022-09-01T01:46:48;17.00;99.90
17697;DHT22;8967;47.984;7.842;2022-09-01T01:49:18;17.00;99.90
17697;DHT22;8967;47.984;7.842;2022-09-01T01:51:49;17.00;99.90
17697;DHT22;8967;47.984;7.842;2022-09-01T01:54:19;16.90;99.90
17697;DHT22;8967;47.984;7.842;2022-09-01T01:56:49;16.90;99.90
17697;DHT22;8967;47.984;7.842;2022-09-01T01:59:16;16.90;99.90
17697;DHT22;8967;47.984;7.842;2022-09-01T02:01:44;16.90;99.90
17697;DHT22;8967;47.984;7.842;2022-09-01T02:04:16;16.80;99.90
17697;DHT22;8967;47.984;7.842;2022-09-01T02:06:44;16.80;99.90
17697;DHT22;8967;47.984;7.842;2022-09-01T02:09:14;16.70;99.90
17697;DHT22;8967;47.984;7.842;2022-09-01T02:11:41;16.90;99.90
17697;DHT22;8967;47.984;7.842;2022-09-01T02:14:11;16.70;99.90
17697;DHT22;8967;47.984;7.842;2022-09-01T02:16:40;16.70;99.90
17697;DHT22;8967;47.984;7.842;2022-09-01T02:19:08;15.80;99.90
17697;DHT22;8967;47.984;7.842;2022-09-01T02:21:37;16.60;99.90
17697;DHT22;8967;47.984;7.842;2022-09-01T02:24:18;16.60;99.90
17697;DHT22;8967;47.984;7.842;2022-09-01T02:26:45;16.60;99.90
17697;DHT22;8967;47.984;7.842;2022-09-01T02:29:19;16.60;99.90
17697;DHT22;8967;47.984;7.842;2022-09-01T02:31:48;16.60;99.90
17697;DHT22;8967;47.984;7.842;2022-09-01T02:34:17;16.70;99.90
17697;DHT22;8967;47.984;7.842;2022-09-01T02:36:46;16.70;99.90
17697;DHT22;8967;47.984;7.842;2022-09-01T02:39:18;16.70;99.90
17697;DHT22;8967;47.984;7.842;2022-09-01T02:41:48;16.70;99.90
17697;DHT22;8967;47.984;7.842;2022-09-01T02:44:21;16.70;99.90
17697;DHT22;8967;47.984;7.842;2022-09-01T02:46:49;16.70;99.90
17697;DHT22;8967;47.984;7.842;2022-09-01T02:49:21;16.70;99.90
17697;DHT22;8967;47.984;7.842;2022-09-01T02:51:55;15.60;99.90
17697;DHT22;8967;47.984;7.842;2022-09-01T02:54:27;16.70;99.90
17697;DHT22;8967;47.984;7.842;2022-09-01T02:56:55;16.70;99.90
17697;DHT22;8967;47.984;7.842;2022-09-01T02:59:26;16.70;99.90
17697;DHT22;8967;47.984;7.842;2022-09-01T03:01:58;16.70;99.90
17697;DHT22;8967;47.984;7.842;2022-09-01T03:04:25;16.70;99.90
17697;DHT22;8967;47.984;7.842;2022-09-01T03:06:54;16.70;99.90
17697;DHT22;8967;47.984;7.842;2022-09-01T03:09:23;16.60;99.90
17697;DHT22;8967;47.984;7.842;2022-09-01T03:11:51;16.70;99.90
17697;DHT22;8967;47.984;7.842;2022-09-01T03:14:20;16.70;99.90
17697;DHT22;8967;47.984;7.842;2022-09-01T03:16:50;16.70;99.90
17697;DHT22;8967;47.984;7.842;2022-09-01T03:19:18;16.80;99.90
17697;DHT22;8967;47.984;7.842;2022-09-01T03:21:46;16.70;99.90
17697;DHT22;8967;47.984;7.842;2022-09-01T03:24:16;16.60;99.90
17697;DHT22;8967;47.984;7.842;2022-09-01T03:26:45;16.70;99.90
17697;DHT22;8967;47.984;7.842;2022-09-01T03:29:15;16.70;99.90
17697;DHT22;8967;47.984;7.842;2022-09-01T03:31:41;16.70;99.90
17697;DHT22;8967;47.984;7.842;2022-09-01T03:34:10;16.60;99.90
17697;DHT22;8967;47.984;7.842;2022-09-01T03:36:44;16.60;99.90
17697;DHT22;8967;47.984;7.842;2022-09-01T03:39:17;16.60;99.90
17697;DHT22;8967;47.984;7.842;2022-09-01T03:41:44;16.50;99.90
17697;DHT22;8967;47.984;7.842;2022-09-01T03:44:12;16.60;99.90
17697;DHT22;8967;47.984;7.842;2022-09-01T03:46:42;16.50;99.90
17697;DHT22;8967;47.984;7.842;2022-09-01T03:49:11;16.50;99.90
17697;DHT22;8967;47.984;7.842;2022-09-01T03:51:41;16.50;99.90
17697;DHT22;8967;47.984;7.842;2022-09-01T03:54:09;16.50;99.90
17697;DHT22;8967;47.984;7.842;2022-09-01T03:59:06;16.40;99.90
17697;DHT22;8967;47.984;7.842;2022-09-01T04:01:33;16.30;99.90
17697;DHT22;8967;47.984;7.842;2022-09-01T04:04:06;16.30;99.90
17697;DHT22;8967;47.984;7.842;2022-09-01T04:06:36;16.20;99.90
17697;DHT22;8967;47.984;7.842;2022-09-01T04:09:03;16.20;99.90
17697;DHT22;8967;47.984;7.842;2022-09-01T04:11:33;16.10;99.90
17697;DHT22;8967;47.984;7.842;2022-09-01T04:14:02;16.00;99.90
17697;DHT22;8967;47.984;7.842;2022-09-01T04:16:35;16.90;99.90
17697;DHT22;8967;47.984;7.842;2022-09-01T04:19:24;14.60;99.90
17697;DHT22;8967;47.984;7.842;2022-09-01T04:21:54;16.20;99.90
17697;DHT22;8967;47.984;7.842;2022-09-01T04:24:23;15.90;99.90
17697;DHT22;8967;47.984;7.842;2022-09-01T04:31:54;15.90;99.90
17697;DHT22;8967;47.984;7.842;2022-09-01T04:34:21;15.90;99.90
17697;DHT22;8967;47.984;7.842;2022-09-01T04:36:49;15.80;99.90
17697;DHT22;8967;47.984;7.842;2022-09-01T04:39:22;15.80;99.90
17697;DHT22;8967;47.984;7.842;2022-09-01T04:41:50;15.80;99.90
17697;DHT22;8967;47.984;7.842;2022-09-01T04:44:17;15.70;99.90
17697;DHT22;8967;47.984;7.842;2022-09-01T04:46:45;15.00;99.90
17697;DHT22;8967;47.984;7.842;2022-09-01T04:49:15;15.70;99.90
17697;DHT22;8967;47.984;7.842;2022-09-01T04:51:48;15.70;99.90
17697;DHT22;8967;47.984;7.842;2022-09-01T04:54:17;15.60;99.90
17697;DHT22;8967;47.984;7.842;2022-09-01T04:56:49;15.60;99.90
17697;DHT22;8967;47.984;7.842;2022-09-01T04:59:18;15.50;99.90
17697;DHT22;8967;47.984;7.842;2022-09-01T05:01:50;15.60;99.90
17697;DHT22;8967;47.984;7.842;2022-09-01T05:04:23;15.60;99.90
17697;DHT22;8967;47.984;7.842;2022-09-01T05:06:53;15.60;99.90
17697;DHT22;8967;47.984;7.842;2022-09-01T05:09:25;15.50;99.90
17697;DHT22;8967;47.984;7.842;2022-09-01T05:12:13;15.50;99.90
17697;DHT22;8967;47.984;7.842;2022-09-01T05:14:44;14.20;99.90
17697;DHT22;8967;47.984;7.842;2022-09-01T05:17:15;15.50;99.90
17697;DHT22;8967;47.984;7.842;2022-09-01T05:19:46;15.50;99.90
17697;DHT22;8967;47.984;7.842;2022-09-01T05:22:16;15.50;99.90
17697;DHT22;8967;47.984;7.842;2022-09-01T05:24:58;15.50;99.90
17697;DHT22;8967;47.984;7.842;2022-09-01T05:27:42;15.50;99.90
17697;DHT22;8967;47.984;7.842;2022-09-01T05:30:15;15.50;99.90
17697;DHT22;8967;47.984;7.842;2022-09-01T05:32:43;15.50;99.90
17697;DHT22;8967;47.984;7.842;2022-09-01T05:35:12;15.50;99.90
17697;DHT22;8967;47.984;7.842;2022-09-01T05:37:39;15.50;99.90
17697;DHT22;8967;47.984;7.842;2022-09-01T05:40:10;15.50;99.90
17697;DHT22;8967;47.984;7.842;2022-09-01T05:42:43;15.60;99.90
17697;DHT22;8967;47.984;7.842;2022-09-01T05:45:11;15.60;99.90
17697;DHT22;8967;47.984;7.842;2022-09-01T05:47:38;15.60;99.90
17697;DHT22;8967;47.984;7.842;2022-09-01T05:50:08;15.70;99.90
17697;DHT22;8967;47.984;7.842;2022-09-01T05:52:38;15.70;99.90
17697;DHT22;8967;47.984;7.842;2022-09-01T05:55:09;15.70;99.90
17697;DHT22;8967;47.984;7.842;2022-09-01T05:57:39;15.70;99.90
17697;DHT22;8967;47.984;7.842;2022-09-01T06:00:09;15.70;99.90
17697;DHT22;8967;47.984;7.842;2022-09-01T06:02:41;15.80;99.90
17697;DHT22;8967;47.984;7.842;2022-09-01T06:05:12;15.80;99.90
17697;DHT22;8967;47.984;7.842;2022-09-01T06:07:40;15.80;99.90
17697;DHT22;8967;47.984;7.842;2022-09-01T06:10:09;15.90;99.90
17697;DHT22;8967;47.984;7.842;2022-09-01T06:12:37;15.90;99.90
17697;DHT22;8967;47.984;7.842;2022-09-01T06:15:06;16.00;99.90
17697;DHT22;8967;47.984;7.842;2022-09-01T06:17:42;15.90;99.90
17697;DHT22;8967;47.984;7.842;2022-09-01T06:20:11;16.00;99.90
17697;DHT22;8967;47.984;7.842;2022-09-01T06:22:41;16.00;99.90
17697;DHT22;8967;47.984;7.842;2022-09-01T06:25:09;16.10;99.90
17697;DHT22;8967;47.984;7.842;2022-09-01T06:27:40;16.10;99.90
17697;DHT22;8967;47.984;7.842;2022-09-01T06:30:10;16.20;99.90
17697;DHT22;8967;47.984;7.842;2022-09-01T06:32:47;16.20;99.90
17697;DHT22;8967;47.984;7.842;2022-09-01T06:35:15;16.30;99.90
17697;DHT22;8967;47.984;7.842;2022-09-01T06:37:43;16.30;99.90
17697;DHT22;8967;47.984;7.842;2022-09-01T06:40:19;16.40;99.90
17697;DHT22;8967;47.984;7.842;2022-09-01T06:42:48;16.40;99.90
17697;DHT22;8967;47.984;7.842;2022-09-01T06:45:17;16.50;99.90
17697;DHT22;8967;47.984;7.842;2022-09-01T06:47:47;16.50;99.90
17697;DHT22;8967;47.984;7.842;2022-09-01T06:50:18;16.60;99.90
17697;DHT22;8967;47.984;7.842;2022-09-01T06:52:47;16.60;99.90
17697;DHT22;8967;47.984;7.842;2022-09-01T06:55:26;16.70;99.90
17697;DHT22;8967;47.984;7.842;2022-09-01T06:57:59;16.70;99.90
17697;DHT22;8967;47.984;7.842;2022-09-01T07:00:30;16.80;99.90
17697;DHT22;8967;47.984;7.842;2022-09-01T07:02:58;16.90;99.90
17697;DHT22;8967;47.984;7.842;2022-09-01T07:05:38;16.90;99.90
17697;DHT22;8967;47.984;7.842;2022-09-01T07:08:06;17.00;99.90
17697;DHT22;8967;47.984;7.842;2022-09-01T07:10:52;17.10;99.90
17697;DHT22;8967;47.984;7.842;2022-09-01T07:13:21;17.20;99.90
17697;DHT22;8967;47.984;7.842;2022-09-01T07:15:51;17.20;99.90
17697;DHT22;8967;47.984;7.842;2022-09-01T07:18:24;17.30;99.90
17697;DHT22;8967;47.984;7.842;2022-09-01T07:20:52;17.40;99.90
17697;DHT22;8967;47.984;7.842;2022-09-01T07:23:20;17.40;99.90
17697;DHT22;8967;47.984;7.842;2022-09-01T07:25:50;17.50;99.90
17697;DHT22;8967;47.984;7.842;2022-09-01T07:28:31;17.60;99.90
17697;DHT22;8967;47.984;7.842;2022-09-01T07:30:59;17.70;99.90
17697;DHT22;8967;47.984;7.842;2022-09-01T07:33:29;17.70;99.90
17697;DHT22;8967;47.984;7.842;2022-09-01T07:35:57;17.80;99.90
17697;DHT22;8967;47.984;7.842;2022-09-01T07:38:25;17.90;99.90
17697;DHT22;8967;47.984;7.842;2022-09-01T07:40:53;17.90;99.90
17697;DHT22;8967;47.984;7.842;2022-09-01T07:43:40;17.90;99.90
17697;DHT22;8967;47.984;7.842;2022-09-01T07:46:35;18.00;99.90
17697;DHT22;8967;47.984;7.842;2022-09-01T07:49:04;18.00;99.90
17697;DHT22;8967;47.984;7.842;2022-09-01T07:51:31;18.10;99.90
17697;DHT22;8967;47.984;7.842;2022-09-01T07:54:00;18.10;99.90
17697;DHT22;8967;47.984;7.842;2022-09-01T07:56:28;18.10;99.90
17697;DHT22;8967;47.984;7.842;2022-09-01T07:58:56;18.20;99.90
17697;DHT22;8967;47.984;7.842;2022-09-01T08:01:27;18.20;99.90
17697;DHT22;8967;47.984;7.842;2022-09-01T08:03:58;18.20;99.90
17697;DHT22;8967;47.984;7.842;2022-09-01T08:06:28;18.30;99.90
17697;DHT22;8967;47.984;7.842;2022-09-01T08:08:58;18.30;99.90
17697;DHT22;8967;47.984;7.842;2022-09-01T08:11:27;18.40;99.90
17697;DHT22;8967;47.984;7.842;2022-09-01T08:13:56;18.40;99.90
17697;DHT22;8967;47.984;7.842;2022-09-01T08:16:25;18.50;99.90
17697;DHT22;8967;47.984;7.842;2022-09-01T08:18:56;18.50;99.90
17697;DHT22;8967;47.984;7.842;2022-09-01T08:21:31;18.60;99.90
17697;DHT22;8967;47.984;7.842;2022-09-01T08:24:05;18.70;99.90
17697;DHT22;8967;47.984;7.842;2022-09-01T08:26:34;18.70;99.90
17697;DHT22;8967;47.984;7.842;2022-09-01T08:29:02;18.80;99.90
17697;DHT22;8967;47.984;7.842;2022-09-01T08:31:37;18.80;99.90
17697;DHT22;8967;47.984;7.842;2022-09-01T08:34:04;18.90;99.90
17697;DHT22;8967;47.984;7.842;2022-09-01T08:36:33;19.00;99.90
17697;DHT22;8967;47.984;7.842;2022-09-01T08:39:01;19.00;99.90
17697;DHT22;8967;47.984;7.842;2022-09-01T08:41:40;19.10;99.90
17697;DHT22;8967;47.984;7.842;2022-09-01T08:44:15;19.20;99.90
17697;DHT22;8967;47.984;7.842;2022-09-01T08:46:46;19.20;99.90
17697;DHT22;8967;47.984;7.842;2022-09-01T08:49:18;19.30;99.90
17697;DHT22;8967;47.984;7.842;2022-09-01T08:52:10;19.30;99.90
17697;DHT22;8967;47.984;7.842;2022-09-01T08:54:44;19.40;99.90
17697;DHT22;8967;47.984;7.842;2022-09-01T08:57:15;19.50;99.90
17697;DHT22;8967;47.984;7.842;2022-09-01T09:00:21;19.60;99.90
17697;DHT22;8967;47.984;7.842;2022-09-01T09:02:55;19.60;99.90
17697;DHT22;8967;47.984;7.842;2022-09-01T09:05:32;19.60;99.90
17697;DHT22;8967;47.984;7.842;2022-09-01T09:08:24;19.70;99.90
17697;DHT22;8967;47.984;7.842;2022-09-01T09:10:58;19.70;99.90
17697;DHT22;8967;47.984;7.842;2022-09-01T09:13:34;19.80;99.90
17697;DHT22;8967;47.984;7.842;2022-09-01T09:16:09;19.80;99.90
17697;DHT22;8967;47.984;7.842;2022-09-01T09:18:42;19.90;99.90
17697;DHT22;8967;47.984;7.842;2022-09-01T09:21:14;19.90;99.90
17697;DHT22;8967;47.984;7.842;2022-09-01T09:23:46;19.90;99.90
17697;DHT22;8967;47.984;7.842;2022-09-01T09:26:14;20.00;99.90
17697;DHT22;8967;47.984;7.842;2022-09-01T09:28:46;20.00;99.90
17697;DHT22;8967;47.984;7.842;2022-09-01T09:31:29;20.10;99.90
17697;DHT22;8967;47.984;7.842;2022-09-01T09:33:56;20.20;99.90
17697;DHT22;8967;47.984;7.842;2022-09-01T09:36:31;20.20;99.90
17697;DHT22;8967;47.984;7.842;2022-09-01T09:39:10;20.30;99.90
17697;DHT22;8967;47.984;7.842;2022-09-01T09:41:38;20.40;99.90
17697;DHT22;8967;47.984;7.842;2022-09-01T09:44:16;20.40;99.90
17697;DHT22;8967;47.984;7.842;2022-09-01T09:46:45;20.40;99.90
17697;DHT22;8967;47.984;7.842;2022-09-01T09:49:18;20.50;99.90
17697;DHT22;8967;47.984;7.842;2022-09-01T09:51:52;20.50;99.90
17697;DHT22;8967;47.984;7.842;2022-09-01T09:54:23;20.50;99.90
17697;DHT22;8967;47.984;7.842;2022-09-01T09:57:04;20.60;99.90
17697;DHT22;8967;47.984;7.842;2022-09-01T09:59:35;20.60;99.90
17697;DHT22;8967;47.984;7.842;2022-09-01T10:02:18;20.50;99.90
17697;DHT22;8967;47.984;7.842;2022-09-01T10:04:51;20.50;99.90
17697;DHT22;8967;47.984;7.842;2022-09-01T10:07:29;20.60;99.90
17697;DHT22;8967;47.984;7.842;2022-09-01T10:09:59;20.60;99.90
17697;DHT22;8967;47.984;7.842;2022-09-01T10:12:27;20.60;99.90
17697;DHT22;8967;47.984;7.842;2022-09-01T10:14:59;20.70;99.90
17697;DHT22;8967;47.984;7.842;2022-09-01T10:17:29;20.70;99.90
17697;DHT22;8967;47.984;7.842;2022-09-01T10:20:03;20.80;99.90
17697;DHT22;8967;47.984;7.842;2022-09-01T10:22:35;20.80;99.90
17697;DHT22;8967;47.984;7.842;2022-09-01T10:25:06;20.80;99.90
17697;DHT22;8967;47.984;7.842;2022-09-01T10:27:36;20.80;99.90
17697;DHT22;8967;47.984;7.842;2022-09-01T10:30:07;20.90;99.90
17697;DHT22;8967;47.984;7.842;2022-09-01T10:32:39;20.90;99.90
17697;DHT22;8967;47.984;7.842;2022-09-01T10:35:09;20.90;99.90
17697;DHT22;8967;47.984;7.842;2022-09-01T10:37:39;21.00;99.90
17697;DHT22;8967;47.984;7.842;2022-09-01T10:40:35;21.00;99.90
17697;DHT22;8967;47.984;7.842;2022-09-01T10:43:33;21.00;99.90
17697;DHT22;8967;47.984;7.842;2022-09-01T10:49:20;21.10;99.90
17697;DHT22;8967;47.984;7.842;2022-09-01T10:51:47;21.10;99.90
17697;DHT22;8967;47.984;7.842;2022-09-01T10:54:51;21.20;99.90
17697;DHT22;8967;47.984;7.842;2022-09-01T10:57:35;21.20;99.90
17697;DHT22;8967;47.984;7.842;2022-09-01T11:00:46;21.20;99.90
17697;DHT22;8967;47.984;7.842;2022-09-01T11:06:55;21.30;99.90
17697;DHT22;8967;47.984;7.842;2022-09-01T11:09:33;21.30;99.90
17697;DHT22;8967;47.984;7.842;2022-09-01T11:12:19;21.30;99.90
17697;DHT22;8967;47.984;7.842;2022-09-01T11:14:54;21.40;99.90
17697;DHT22;8967;47.984;7.842;2022-09-01T11:17:23;21.40;99.90
17697;DHT22;8967;47.984;7.842;2022-09-01T11:19:59;21.50;99.90
17697;DHT22;8967;47.984;7.842;2022-09-01T11:22:33;21.50;99.90
17697;DHT22;8967;47.984;7.842;2022-09-01T11:27:59;21.60;99.90
17697;DHT22;8967;47.984;7.842;2022-09-01T11:30:40;21.70;99.90
17697;DHT22;8967;47.984;7.842;2022-09-01T11:33:32;21.70;99.90
17697;DHT22;8967;47.984;7.842;2022-09-01T11:36:01;21.80;99.90
17697;DHT22;8967;47.984;7.842;2022-09-01T11:38:43;21.80;99.90
17697;DHT22;8967;47.984;7.842;2022-09-01T11:41:23;21.80;99.90
17697;DHT22;8967;47.984;7.842;2022-09-01T11:43:53;21.90;99.90
17697;DHT22;8967;47.984;7.842;2022-09-01T11:46:27;21.90;99.90
17697;DHT22;8967;47.984;7.842;2022-09-01T11:48:56;21.90;99.90
17697;DHT22;8967;47.984;7.842;2022-09-01T11:51:26;22.00;99.90
17697;DHT22;8967;47.984;7.842;2022-09-01T11:53:58;22.00;99.90
17697;DHT22;8967;47.984;7.842;2022-09-01T11:56:28;22.10;99.90
17697;DHT22;8967;47.984;7.842;2022-09-01T11:58:55;22.20;99.90
17697;DHT22;8967;47.984;7.842;2022-09-01T12:01:32;22.20;99.90
17697;DHT22;8967;47.984;7.842;2022-09-01T12:04:17;22.20;99.90
17697;DHT22;8967;47.984;7.842;2022-09-01T12:09:18;22.30;99.90
17697;DHT22;8967;47.984;7.842;2022-09-01T12:11:45;22.40;99.90
17697;DHT22;8967;47.984;7.842;2022-09-01T12:14:20;22.40;99.90
17697;DHT22;8967;47.984;7.842;2022-09-01T12:16:59;22.50;99.90
17697;DHT22;8967;47.984;7.842;2022-09-01T12:19:30;22.60;99.90
17697;DHT22;8967;47.984;7.842;2022-09-01T12:22:02;22.60;99.90
17697;DHT22;8967;47.984;7.842;2022-09-01T12:24:33;22.60;99.90
17697;DHT22;8967;47.984;7.842;2022-09-01T12:27:01;22.70;99.90
17697;DHT22;8967;47.984;7.842;2022-09-01T12:29:29;22.70;99.90
17697;DHT22;8967;47.984;7.842;2022-09-01T12:31:59;22.70;99.90
17697;DHT22;8967;47.984;7.842;2022-09-01T12:34:38;22.80;99.90
17697;DHT22;8967;47.984;7.842;2022-09-01T12:37:11;22.80;99.90
17697;DHT22;8967;47.984;7.842;2022-09-01T12:39:42;22.80;99.90
17697;DHT22;8967;47.984;7.842;2022-09-01T12:42:22;22.90;99.90
17697;DHT22;8967;47.984;7.842;2022-09-01T12:44:51;22.80;99.90
17697;DHT22;8967;47.984;7.842;2022-09-01T12:47:46;22.90;99.90
17697;DHT22;8967;47.984;7.842;2022-09-01T12:50:41;23.00;99.90
17697;DHT22;8967;47.984;7.842;2022-09-01T12:53:21;23.00;99.90
17697;DHT22;8967;47.984;7.842;2022-09-01T12:55:59;22.90;99.90
17697;DHT22;8967;47.984;7.842;2022-09-01T12:58:28;22.90;99.90
17697;DHT22;8967;47.984;7.842;2022-09-01T13:00:59;22.90;99.90
17697;DHT22;8967;47.984;7.842;2022-09-01T13:03:29;22.80;99.90
17697;DHT22;8967;47.984;7.842;2022-09-01T13:05:57;22.90;99.90
17697;DHT22;8967;47.984;7.842;2022-09-01T13:08:26;22.80;99.90
17697;DHT22;8967;47.984;7.842;2022-09-01T13:10:56;22.90;99.90
17697;DHT22;8967;47.984;7.842;2022-09-01T13:13:28;22.90;99.90
17697;DHT22;8967;47.984;7.842;2022-09-01T13:15:58;23.00;99.90
17697;DHT22;8967;47.984;7.842;2022-09-01T13:18:30;23.00;99.90
17697;DHT22;8967;47.984;7.842;2022-09-01T13:20:58;23.00;99.90
17697;DHT22;8967;47.984;7.842;2022-09-01T13:23:25;23.10;99.90
17697;DHT22;8967;47.984;7.842;2022-09-01T13:25:52;23.20;99.80
17697;DHT22;8967;47.984;7.842;2022-09-01T13:28:19;23.10;99.80
17697;DHT22;8967;47.984;7.842;2022-09-01T13:30:55;23.20;99.60
17697;DHT22;8967;47.984;7.842;2022-09-01T13:33:25;23.30;99.20
17697;DHT22;8967;47.984;7.842;2022-09-01T13:35:54;23.30;99.10
17697;DHT22;8967;47.984;7.842;2022-09-01T13:38:21;23.40;98.90
17697;DHT22;8967;47.984;7.842;2022-09-01T13:40:51;23.50;99.20
17697;DHT22;8967;47.984;7.842;2022-09-01T13:43:19;23.50;98.70
17697;DHT22;8967;47.984;7.842;2022-09-01T13:45:47;23.60;98.20
17697;DHT22;8967;47.984;7.842;2022-09-01T13:48:14;23.60;98.10
17697;DHT22;8967;47.984;7.842;2022-09-01T13:50:42;23.60;97.90
17697;DHT22;8967;47.984;7.842;2022-09-01T13:53:11;23.60;97.70
17697;DHT22;8967;47.984;7.842;2022-09-01T13:55:39;23.60;97.60
17697;DHT22;8967;47.984;7.842;2022-09-01T13:58:07;23.60;97.50
17697;DHT22;8967;47.984;7.842;2022-09-01T14:00:36;23.60;97.20
17697;DHT22;8967;47.984;7.842;2022-09-01T14:03:05;23.60;97.10
17697;DHT22;8967;47.984;7.842;2022-09-01T14:05:38;23.60;96.70
17697;DHT22;8967;47.984;7.842;2022-09-01T14:08:08;23.70;96.80
17697;DHT22;8967;47.984;7.842;2022-09-01T14:10:40;23.70;96.40
17697;DHT22;8967;47.984;7.842;2022-09-01T14:13:08;23.70;95.70
17697;DHT22;8967;47.984;7.842;2022-09-01T14:15:35;23.70;95.20
17697;DHT22;8967;47.984;7.842;2022-09-01T14:18:03;23.60;94.80
17697;DHT22;8967;47.984;7.842;2022-09-01T14:20:32;23.60;94.70
17697;DHT22;8967;47.984;7.842;2022-09-01T14:23:00;23.70;94.30
17697;DHT22;8967;47.984;7.842;2022-09-01T14:25:29;23.70;93.90
17697;DHT22;8967;47.984;7.842;2022-09-01T14:27:59;23.70;93.80
17697;DHT22;8967;47.984;7.842;2022-09-01T14:30:29;23.80;93.80
17697;DHT22;8967;47.984;7.842;2022-09-01T14:32:57;23.80;93.60
17697;DHT22;8967;47.984;7.842;2022-09-01T14:35:25;23.90;93.60
17697;DHT22;8967;47.984;7.842;2022-09-01T14:37:53;23.90;93.20
17697;DHT22;8967;47.984;7.842;2022-09-01T14:40:22;23.90;92.80
17697;DHT22;8967;47.984;7.842;2022-09-01T14:42:51;24.00;92.70
17697;DHT22;8967;47.984;7.842;2022-09-01T14:45:21;24.00;92.80
17697;DHT22;8967;47.984;7.842;2022-09-01T14:47:50;24.00;92.70
17697;DHT22;8967;47.984;7.842;2022-09-01T14:50:19;24.00;92.60
17697;DHT22;8967;47.984;7.842;2022-09-01T14:52:51;24.10;92.40
17697;DHT22;8967;47.984;7.842;2022-09-01T14:55:19;24.10;92.50
17697;DHT22;8967;47.984;7.842;2022-09-01T14:57:49;24.10;92.10
17697;DHT22;8967;47.984;7.842;2022-09-01T15:00:17;24.10;92.10
17697;DHT22;8967;47.984;7.842;2022-09-01T15:02:46;24.10;91.90
17697;DHT22;8967;47.984;7.842;2022-09-01T15:05:13;24.10;91.90
17697;DHT22;8967;47.984;7.842;2022-09-01T15:07:42;24.10;91.90
17697;DHT22;8967;47.984;7.842;2022-09-01T15:10:12;24.00;91.70
17697;DHT22;8967;47.984;7.842;2022-09-01T15:12:40;24.00;91.60
17697;DHT22;8967;47.984;7.842;2022-09-01T15:15:08;24.00;91.50
17697;DHT22;8967;47.984;7.842;2022-09-01T15:17:35;24.10;91.60
17697;DHT22;8967;47.984;7.842;2022-09-01T15:20:07;24.20;91.60
17697;DHT22;8967;47.984;7.842;2022-09-01T15:22:52;24.20;91.70
17697;DHT22;8967;47.984;7.842;2022-09-01T15:25:21;24.20;91.80
17697;DHT22;8967;47.984;7.842;2022-09-01T15:27:48;24.20;91.70
17697;DHT22;8967;47.984;7.842;2022-09-01T15:30:17;24.30;91.70
17697;DHT22;8967;47.984;7.842;2022-09-01T15:32:49;24.20;91.50
17697;DHT22;8967;47.984;7.842;2022-09-01T15:35:18;24.20;91.70
17697;DHT22;8967;47.984;7.842;2022-09-01T15:37:46;24.20;91.80
17697;DHT22;8967;47.984;7.842;2022-09-01T15:40:13;24.10;91.70
17697;DHT22;8967;47.984;7.842;2022-09-01T15:42:40;24.10;91.60
17697;DHT22;8967;47.984;7.842;2022-09-01T15:45:10;24.00;91.70
17697;DHT22;8967;47.984;7.842;2022-09-01T15:47:38;24.00;91.70
17697;DHT22;8967;47.984;7.842;2022-09-01T15:50:09;24.00;91.70
17697;DHT22;8967;47.984;7.842;2022-09-01T15:52:48;24.00;91.50
17697;DHT22;8967;47.984;7.842;2022-09-01T15:55:19;23.90;91.60
17697;DHT22;8967;47.984;7.842;2022-09-01T15:57:46;23.90;91.60
17697;DHT22;8967;47.984;7.842;2022-09-01T16:00:16;23.80;91.60
17697;DHT22;8967;47.984;7.842;2022-09-01T16:02:43;23.80;91.60
17697;DHT22;8967;47.984;7.842;2022-09-01T16:05:11;23.80;91.50
17697;DHT22;8967;47.984;7.842;2022-09-01T16:07:38;23.70;91.30
17697;DHT22;8967;47.984;7.842;2022-09-01T16:10:08;23.70;91.50
17697;DHT22;8967;47.984;7.842;2022-09-01T16:12:40;23.70;91.50
17697;DHT22;8967;47.984;7.842;2022-09-01T16:15:10;23.70;91.70
17697;DHT22;8967;47.984;7.842;2022-09-01T16:17:54;23.60;91.60
17697;DHT22;8967;47.984;7.842;2022-09-01T16:20:29;23.60;92.00
17697;DHT22;8967;47.984;7.842;2022-09-01T16:23:11;23.60;91.70
17697;DHT22;8967;47.984;7.842;2022-09-01T16:25:40;23.60;91.40
17697;DHT22;8967;47.984;7.842;2022-09-01T16:28:11;23.50;91.10
17697;DHT22;8967;47.984;7.842;2022-09-01T16:30:43;23.50;91.00
17697;DHT22;8967;47.984;7.842;2022-09-01T16:33:12;23.50;91.10